Thune, Nebraska
Current Conditions -  °F | °C
As of 10:55 AM on Monday 24 Nov 2014 (Local Time) from KOGA Reporting Station
Scattered Clouds Scattered Clouds  
Wind Chill: 36°   Ceiling: Unl
Heat Index: 44°   Visibility: 10mi
Dew Point: 26°   Wind: 20mph
Humidity: 49%   Direction: 340°NNW
Pressure: 29.88"   Gusts: 28mph
Location:  41.2105°N, 101.376°W
Report Text: KOGA 241755Z AUTO 34017G24KT 10SM SCT040 SCT060 07/M03 A2988 RMK AO2 T00691033 10073 21013
Loading
Personal Weather Stations






























Interactive Weather Map New forecast layout! Learn more

10-Day Weather Forecast

Advertisements
Track Severe Weather on mobile